Home > Products > Valid Products > TAF

000
FTUS42 KCAE 310906 AAB
TAFCAE
TAF AMD
KCAE 310906Z 3109/0106 VRB04KT P6SM BKN006
     FM311300 35005KT P6SM SCT015 BKN040
     FM311800 01007KT P6SM SCT050 BKN150
     FM010000 VRB03KT P6SM SCT250=



000
FTUS42 KCAE 310906 AAA
TAFOGB
TAF AMD
KOGB 310906Z 3109/0106 00000KT 5SM BR SCT002 SCT100
      TEMPO 3109/3113 2SM BR BKN003
     FM311300 35007KT P6SM SCT015 BKN040
     FM311800 01006KT P6SM SCT050 BKN150
     FM010000 VRB03KT P6SM SCT250=



000
FTUS42 KCAE 310906 AAA
TAFAGS
TAF AMD
KAGS 310906Z 3109/0106 VRB03KT P6SM SCT100
      TEMPO 3109/3113 3SM BR
     FM311300 36006KT P6SM SCT050
     FM010000 VRB03KT P6SM SCT250=



000
FTUS42 KCAE 310906 AAA
TAFDNL
TAF AMD
KDNL 310906Z 3109/0106 VRB03KT P6SM SCT100
     FM311300 01006KT P6SM SCT050
     FM010000 VRB03KT P6SM SCT250=



000
FTUS42 KCAE 310906 AAB
TAFCUB
TAF AMD
KCUB 310906Z 3109/0106 VRB03KT P6SM BKN006
     FM311300 35005KT P6SM SCT015 BKN040
     FM311800 01006KT P6SM SCT050 BKN150
     FM010000 VRB03KT P6SM SCT250=



000
FTUS42 KCAE 310701 AAA
TAFCUB
TAF AMD
KCUB 310701Z 3107/0106 VRB03KT P6SM BKN008
     FM311300 35005KT P6SM SCT015 BKN040
     FM311800 01006KT P6SM SCT050 BKN150
     FM010000 VRB03KT P6SM SCT250=



000
FTUS42 KCAE 310700 AAA
TAFCAE
TAF AMD
KCAE 310700Z 3107/0106 VRB04KT P6SM BKN009
     FM311300 35005KT P6SM SCT015 BKN040
     FM311800 01007KT P6SM SCT050 BKN150
     FM010000 VRB03KT P6SM SCT250=



000
FTUS42 KCAE 310505 AAB
TAFOGB
TAF AMD
KOGB 310505Z 3105/3124 00000KT P6SM SCT020 BKN090
      TEMPO 3105/3109 BKN020
     FM311000 VRB03KT 3SM BR BKN007
     FM311300 35007KT P6SM SCT015 BKN040
     FM311800 01006KT P6SM SCT050 BKN150=



000
FTUS42 KCAE 302237 AAB
TAFCAE
TAF AMD
KCAE 302237Z 3023/3118 36008KT P6SM VCSH SCT040 BKN100
      TEMPO 3023/3024 5SM SHRA BR
     FM310000 VRB04KT P6SM SCT040
     FM310900 VRB03KT 5SM BR SCT007 BKN015
     FM311300 01006KT P6SM SCT015 BKN040=



000
FTUS42 KCAE 300913 AAA
TAFAGS
TAF AMD
KAGS 300913Z 3009/3106 34007KT P6SM BKN050
     FM301800 33007KT P6SM BKN035
     FM310000 VRB03KT P6SM SCT040=



000
FTUS42 KCAE 300913 AAA
TAFCUB
TAF AMD
KCUB 300913Z 3009/3106 35005KT P6SM VCSH BKN040
      TEMPO 3009/3013 5SM -RA OVC012
     FM301800 34007KT P6SM VCSH BKN035
     FM310000 VRB03KT P6SM SCT040=



000
FTUS42 KCAE 300913 AAA
TAFCAE
TAF AMD
KCAE 300913Z 3009/3106 35006KT P6SM VCSH BKN040
      TEMPO 3009/3013 5SM -RA OVC012
     FM301800 34008KT P6SM VCSH BKN035
     FM310000 VRB04KT P6SM SCT040=



000
FTUS42 KCAE 300913 AAA
TAFDNL
TAF AMD
KDNL 300913Z 3009/3106 34007KT P6SM BKN050
     FM301800 33008KT P6SM BKN035
     FM310000 VRB03KT P6SM SCT040=



000
FTUS42 KCAE 300913 AAA
TAFOGB
TAF AMD
KOGB 300913Z 3009/3106 35008KT 5SM -RA OVC006
     FM301400 35008KT P6SM VCSH OVC015
     FM301800 35008KT P6SM VCSH BKN035
     FM310000 VRB04KT P6SM SCT040=



000
FTUS42 KCAE 300246 AAA
TAFDNL
TAF AMD
KDNL 300246Z 3003/3024 33007KT P6SM SCT035 BKN100
     FM300600 34007KT P6SM BKN020
      TEMPO 3008/3012 BKN007
     FM301400 33005KT P6SM VCSH SCT007 OVC025
     FM301800 33008KT P6SM SCT035 BKN100=



000
FTUS42 KCAE 300246 AAA
TAFCAE
TAF AMD
KCAE 300246Z 3003/3024 36008KT P6SM SCT035 BKN100
     FM300500 01007KT P6SM SCT007 OVC015
      TEMPO 3008/3012 BKN007
     FM301500 34007KT P6SM VCSH SCT007 OVC020
     FM301800 31007KT P6SM VCSH BKN040 OVC100=



000
FTUS42 KCAE 300246 AAA
TAFOGB
TAF AMD
KOGB 300246Z 3003/3024 01010G16KT 6SM BR VCSH SCT008 OVC012
      TEMPO 3003/3006 5SM -SHRA BKN025
     FM300600 02008KT 6SM BR OVC007
     FM301400 25008KT 6SM -SHRA SCT007 OVC015
     FM301800 35008KT P6SM VCSH OVC035=



000
FTUS42 KCAE 300246 AAA
TAFCUB
TAF AMD
KCUB 300246Z 3003/3024 36005KT P6SM SCT025 BKN040
     FM300500 01005KT P6SM SCT007 OVC015
      TEMPO 3008/3012 BKN007
     FM301500 34007KT P6SM VCSH SCT007 OVC020
     FM301800 31007KT P6SM VCSH BKN040 OVC100=



000
FTUS42 KCAE 300246 AAA
TAFAGS
TAF AMD
KAGS 300246Z 3003/3024 34008KT P6SM SCT035 BKN100
     FM300600 34007KT P6SM BKN020
      TEMPO 3008/3012 BKN007
     FM301400 33005KT P6SM VCSH SCT007 OVC025
     FM301800 33008KT P6SM SCT035 BKN100=



000
FTUS42 KCAE 291740
TAFDNL
TAF
KDNL 291740Z 2918/3018 35012G20KT 5SM -SHRA BR SCT010 BKN035 OVC045
     FM300300 34007KT 5SM SHRA BR OVC020
     FM300800 34008KT 5SM -SHRA BR BKN007 OVC012
     FM301400 25008KT P6SM VCSH SCT007 OVC020=



000
FTUS42 KCAE 291740
TAFAGS
TAF
KAGS 291740Z 2918/3018 35012G20KT 6SM -SHRA BR BKN035 OVC045
      TEMPO 2918/2921 4SM -SHRA BR SCT008 BKN035 OVC045
     FM300300 34007KT 5SM SHRA BR OVC020
     FM300800 34008KT 5SM -SHRA BR BKN007 OVC012
     FM301400 25008KT P6SM VCSH SCT007 OVC020=



000
FTUS42 KCAE 291740
TAFOGB
TAF
KOGB 291740Z 2918/3018 36012G24KT 5SM -SHRA BR SCT008 OVC018
      TEMPO 2918/2921 2SM +SHRA BR BKN008 OVC015
     FM300300 36010G18KT 4SM -SHRA BR SCT007 OVC012
     FM300800 34010G18KT 5SM -SHRA BR BKN007 OVC012
     FM301500 25008KT P6SM VCSH SCT007 OVC020=



000
FTUS42 KCAE 291740
TAFCAE
TAF
KCAE 291740Z 2918/3018 34010G20KT 6SM -SHRA BR SCT013 BKN035 OVC045
      TEMPO 2918/2921 3SM SHRA BR BKN013 OVC025
     FM300300 36008G15KT 5SM -SHRA BR SCT007 OVC015
     FM300800 34008G15KT 5SM -SHRA BR BKN007 OVC012
     FM301500 25008KT P6SM VCSH SCT007 OVC020=



000
FTUS42 KCAE 291740
TAFCUB
TAF
KCUB 291740Z 2918/3018 34010G20KT 6SM -SHRA BR SCT013 BKN035 OVC045
      TEMPO 2918/2921 3SM SHRA BR BKN013 OVC025
     FM300300 36008G15KT 5SM -SHRA BR SCT007 OVC015
     FM300800 34008G15KT 5SM -SHRA BR BKN007 OVC012
     FM301500 25008KT P6SM VCSH SCT007 OVC020=



000
FTUS42 KCAE 291140
TAFDNL
TAF
KDNL 291140Z 2912/3012 35012KT 3SM -SHRA BR OVC015 WS010/36030KT
      TEMPO 2912/2915 1 1/2SM +SHRA BR OVC007
     FM291600 35012G18KT 5SM -SHRA BR OVC025
      TEMPO 2916/2918 3SM SHRA BR OVC015
     FM300300 34010KT 5SM SHRA BR OVC020=



000
FTUS42 KCAE 291140
TAFOGB
TAF
KOGB 291140Z 2912/3012 36012KT 5SM -SHRA BR BKN009 OVC017
      WS010/36030KT
      TEMPO 2912/2915 4SM SHRA BR BKN006 OVC009
     FM291600 36012G18KT 5SM -SHRA BR OVC015
     FM300300 36010G16KT 3SM -SHRA BR OVC012=



000
FTUS42 KCAE 291140
TAFCAE
TAF
KCAE 291140Z 2912/3012 35008G15KT 5SM -SHRA BR SCT015 BKN025 OVC035
      WS010/36025KT
      TEMPO 2912/2915 3SM SHRA BR SCT007 OVC015
     FM291600 35010G16KT 5SM -SHRA BR OVC020
     FM300300 36008G15KT 4SM -SHRA BR OVC012=



000
FTUS42 KCAE 291140
TAFCUB
TAF
KCUB 291140Z 2912/3012 35007KT 5SM -SHRA BR SCT015 BKN025 OVC035
      WS010/36025KT
      TEMPO 2912/2915 3SM SHRA BR SCT007 OVC015
     FM291600 35010G16KT 5SM -SHRA BR OVC020
     FM300300 36008KT 4SM -SHRA BR OVC012=



000
FTUS42 KCAE 291140
TAFAGS
TAF
KAGS 291140Z 2912/3012 35012KT 3SM -SHRA BR OVC015 WS010/36030KT
      TEMPO 2912/2915 1 1/2SM +SHRA BR OVC007
     FM291600 35012G18KT 5SM SHRA OVC025
      TEMPO 2916/2918 3SM SHRA BR OVC015
     FM300300 34010KT 5SM SHRA BR OVC020=



000
FTUS42 KCAE 290911 AAA
TAFCAE
TAF AMD
KCAE 290911Z 2909/3006 02010KT 5SM SHRA SCT015 OVC025 WS010/01025KT
      TEMPO 2910/2913 3SM SHRA OVC015
     FM291400 35010G16KT 3SM SHRA OVC015=



000
FTUS42 KCAE 290911 AAA
TAFOGB
TAF AMD
KOGB 290911Z 2909/3006 01012KT 5SM SHRA SCT007 OVC015 WS010/01030KT
      TEMPO 2910/2914 3SM SHRA OVC007
     FM291400 36012G18KT 3SM SHRA OVC015=



000
FTUS42 KCAE 290911 AAA
TAFCUB
TAF AMD
KCUB 290911Z 2909/3006 02007KT 5SM SHRA SCT015 OVC025 WS010/01025KT
      TEMPO 2910/2913 3SM SHRA OVC015
     FM291400 35008G15KT 3SM SHRA OVC015=



000
FTUS42 KCAE 290911 AAA
TAFAGS
TAF AMD
KAGS 290911Z 2909/3006 02012KT 3SM SHRA SCT007 OVC015 WS010/02030KT
      TEMPO 2909/2913 1SM +SHRA OVC007
     FM291400 36012G18KT 3SM SHRA OVC015=



000
FTUS42 KCAE 290911 AAA
TAFDNL
TAF AMD
KDNL 290911Z 2909/3006 02012KT 3SM SHRA SCT007 OVC015 WS010/02030KT
      TEMPO 2909/2913 1SM +SHRA OVC007
     FM291400 36012G18KT 3SM SHRA OVC015=



000
FTUS42 KCAE 282213 AAC
TAFCAE
TAF AMD
KCAE 282213Z 2822/2918 08005KT P6SM VCSH SCT035 BKN100
      TEMPO 2822/2824 08025KT 5SM SHRA BKN035
     FM290000 07008KT 5SM -SHRA BR SCT025 OVC035
     FM290400 04005KT 4SM SHRA BR BKN020 OVC040
     FM291400 35009G17KT 5SM -SHRA BR SCT010 BKN020 OVC040=



    US Dept of Commerce
    National Oceanic and Atmospheric Administration
    National Weather Service
    1325 East West Highway
    Silver Spring, MD 20910
    Page Author: NWS Internet Services Team
Disclaimer
Information Quality
Credits
Glossary
Privacy Policy
Freedom of Information Act (FOIA)
About Us
Career Opportunities